sensor_id;sensor_type;location;lat;lon;timestamp;pressure;altitude;pressure_sealevel;temperature;humidity
2401;BME280;1211;43.200;27.914;2022-08-19T00:01:25;100602.91;;;23.97;100.00
2401;BME280;1211;43.200;27.914;2022-08-19T00:03:53;100593.19;;;24.05;100.00
2401;BME280;1211;43.200;27.914;2022-08-19T00:06:20;100606.28;;;24.18;100.00
2401;BME280;1211;43.200;27.914;2022-08-19T00:08:47;100602.69;;;24.14;100.00
2401;BME280;1211;43.200;27.914;2022-08-19T00:11:17;100610.91;;;24.32;100.00
2401;BME280;1211;43.200;27.914;2022-08-19T00:13:44;100615.16;;;23.83;100.00
2401;BME280;1211;43.200;27.914;2022-08-19T00:16:13;100608.66;;;23.90;100.00
2401;BME280;1211;43.200;27.914;2022-08-19T00:18:41;100614.59;;;23.65;100.00
2401;BME280;1211;43.200;27.914;2022-08-19T00:21:09;100608.75;;;23.83;100.00
2401;BME280;1211;43.200;27.914;2022-08-19T00:23:37;100610.41;;;24.91;100.00
2401;BME280;1211;43.200;27.914;2022-08-19T00:26:04;100614.72;;;24.99;100.00
2401;BME280;1211;43.200;27.914;2022-08-19T00:28:32;100617.38;;;25.06;100.00
2401;BME280;1211;43.200;27.914;2022-08-19T00:31:01;100622.78;;;25.20;100.00
2401;BME280;1211;43.200;27.914;2022-08-19T00:33:28;100622.06;;;25.16;100.00
2401;BME280;1211;43.200;27.914;2022-08-19T00:35:55;100620.38;;;25.19;100.00
2401;BME280;1211;43.200;27.914;2022-08-19T00:38:24;100626.16;;;25.12;100.00
2401;BME280;1211;43.200;27.914;2022-08-19T00:40:51;100622.09;;;25.13;100.00
2401;BME280;1211;43.200;27.914;2022-08-19T00:43:19;100621.06;;;25.26;100.00
2401;BME280;1211;43.200;27.914;2022-08-19T00:45:47;100621.66;;;25.37;100.00
2401;BME280;1211;43.200;27.914;2022-08-19T00:48:15;100616.34;;;25.20;100.00
2401;BME280;1211;43.200;27.914;2022-08-19T00:50:43;100614.31;;;25.20;100.00
2401;BME280;1211;43.200;27.914;2022-08-19T00:53:11;100622.97;;;25.33;100.00
2401;BME280;1211;43.200;27.914;2022-08-19T00:55:42;100619.06;;;25.03;100.00
2401;BME280;1211;43.200;27.914;2022-08-19T00:58:14;100618.66;;;25.25;100.00
2401;BME280;1211;43.200;27.914;2022-08-19T01:00:42;100621.41;;;25.28;100.00
2401;BME280;1211;43.200;27.914;2022-08-19T01:03:12;100617.75;;;25.08;100.00
2401;BME280;1211;43.200;27.914;2022-08-19T01:05:41;100623.28;;;25.15;100.00
2401;BME280;1211;43.200;27.914;2022-08-19T01:08:09;100615.25;;;25.14;100.00
2401;BME280;1211;43.200;27.914;2022-08-19T01:10:40;100620.47;;;25.15;100.00
2401;BME280;1211;43.200;27.914;2022-08-19T01:13:08;100620.78;;;24.97;100.00
2401;BME280;1211;43.200;27.914;2022-08-19T01:15:40;100613.16;;;24.94;100.00
2401;BME280;1211;43.200;27.914;2022-08-19T01:18:11;100616.66;;;25.25;100.00
2401;BME280;1211;43.200;27.914;2022-08-19T01:20:40;100606.00;;;25.13;100.00
2401;BME280;1211;43.200;27.914;2022-08-19T01:23:09;100614.22;;;25.27;100.00
2401;BME280;1211;43.200;27.914;2022-08-19T01:25:42;100614.13;;;25.31;100.00
2401;BME280;1211;43.200;27.914;2022-08-19T01:28:16;100610.50;;;24.84;100.00
2401;BME280;1211;43.200;27.914;2022-08-19T01:30:43;100607.75;;;24.53;100.00
2401;BME280;1211;43.200;27.914;2022-08-19T01:33:11;100604.16;;;25.26;100.00
2401;BME280;1211;43.200;27.914;2022-08-19T01:35:38;100611.81;;;25.45;100.00
2401;BME280;1211;43.200;27.914;2022-08-19T01:38:08;100615.31;;;25.33;100.00
2401;BME280;1211;43.200;27.914;2022-08-19T01:40:39;100606.66;;;25.21;100.00
2401;BME280;1211;43.200;27.914;2022-08-19T01:43:07;100607.06;;;25.42;100.00
2401;BME280;1211;43.200;27.914;2022-08-19T01:45:35;100599.91;;;25.38;100.00
2401;BME280;1211;43.200;27.914;2022-08-19T01:48:03;100611.25;;;25.11;100.00
2401;BME280;1211;43.200;27.914;2022-08-19T01:50:31;100605.75;;;25.04;100.00
2401;BME280;1211;43.200;27.914;2022-08-19T01:52:58;100604.53;;;25.05;100.00
2401;BME280;1211;43.200;27.914;2022-08-19T01:55:26;100598.50;;;24.80;100.00
2401;BME280;1211;43.200;27.914;2022-08-19T01:57:57;100595.94;;;24.89;100.00
2401;BME280;1211;43.200;27.914;2022-08-19T02:00:26;100602.19;;;25.00;100.00
2401;BME280;1211;43.200;27.914;2022-08-19T02:02:54;100604.88;;;25.07;100.00
2401;BME280;1211;43.200;27.914;2022-08-19T02:05:21;100604.53;;;25.05;100.00
2401;BME280;1211;43.200;27.914;2022-08-19T02:07:48;100597.59;;;25.10;100.00
2401;BME280;1211;43.200;27.914;2022-08-19T02:10:18;100592.38;;;25.31;100.00
2401;BME280;1211;43.200;27.914;2022-08-19T02:12:46;100591.56;;;25.31;100.00
2401;BME280;1211;43.200;27.914;2022-08-19T02:15:17;100597.28;;;25.27;100.00
2401;BME280;1211;43.200;27.914;2022-08-19T02:17:45;100596.50;;;24.27;100.00
2401;BME280;1211;43.200;27.914;2022-08-19T02:20:12;100589.66;;;25.24;100.00
2401;BME280;1211;43.200;27.914;2022-08-19T02:22:39;100585.94;;;25.31;100.00
2401;BME280;1211;43.200;27.914;2022-08-19T02:25:08;100591.88;;;25.36;100.00
2401;BME280;1211;43.200;27.914;2022-08-19T02:27:35;100592.53;;;25.44;100.00
2401;BME280;1211;43.200;27.914;2022-08-19T02:30:03;100590.00;;;25.50;100.00
2401;BME280;1211;43.200;27.914;2022-08-19T02:32:32;100595.66;;;25.50;100.00
2401;BME280;1211;43.200;27.914;2022-08-19T02:34:59;100592.31;;;25.55;100.00
2401;BME280;1211;43.200;27.914;2022-08-19T02:37:26;100592.06;;;25.45;100.00
2401;BME280;1211;43.200;27.914;2022-08-19T02:40:11;100586.31;;;25.53;100.00
2401;BME280;1211;43.200;27.914;2022-08-19T02:42:37;100587.00;;;25.60;100.00
2401;BME280;1211;43.200;27.914;2022-08-19T02:45:05;100587.53;;;25.52;100.00
2401;BME280;1211;43.200;27.914;2022-08-19T02:47:34;100586.31;;;25.53;100.00
2401;BME280;1211;43.200;27.914;2022-08-19T02:50:02;100579.56;;;25.27;100.00
2401;BME280;1211;43.200;27.914;2022-08-19T02:52:30;100577.34;;;25.38;100.00
2401;BME280;1211;43.200;27.914;2022-08-19T02:54:57;100581.09;;;25.31;100.00
2401;BME280;1211;43.200;27.914;2022-08-19T02:57:25;100585.13;;;25.30;100.00
2401;BME280;1211;43.200;27.914;2022-08-19T02:59:52;100578.25;;;23.06;100.00
2401;BME280;1211;43.200;27.914;2022-08-19T03:02:19;100587.97;;;22.94;100.00
2401;BME280;1211;43.200;27.914;2022-08-19T03:04:48;100584.25;;;23.79;100.00
2401;BME280;1211;43.200;27.914;2022-08-19T03:07:15;100598.84;;;25.09;100.00
2401;BME280;1211;43.200;27.914;2022-08-19T03:09:43;100594.50;;;25.24;100.00
2401;BME280;1211;43.200;27.914;2022-08-19T03:12:10;100599.34;;;25.23;100.00
2401;BME280;1211;43.200;27.914;2022-08-19T03:14:37;100604.16;;;25.26;100.00
2401;BME280;1211;43.200;27.914;2022-08-19T03:17:05;100609.84;;;25.23;100.00
2401;BME280;1211;43.200;27.914;2022-08-19T03:19:32;100606.53;;;25.28;100.00
2401;BME280;1211;43.200;27.914;2022-08-19T03:22:00;100606.53;;;25.28;100.00
2401;BME280;1211;43.200;27.914;2022-08-19T03:24:27;100600.81;;;25.31;100.00
2401;BME280;1211;43.200;27.914;2022-08-19T03:26:56;100602.94;;;25.27;100.00
2401;BME280;1211;43.200;27.914;2022-08-19T03:29:25;100612.81;;;25.35;100.00
2401;BME280;1211;43.200;27.914;2022-08-19T03:31:52;100608.78;;;25.36;100.00
2401;BME280;1211;43.200;27.914;2022-08-19T03:34:23;100615.09;;;25.44;100.00
2401;BME280;1211;43.200;27.914;2022-08-19T03:36:52;100623.25;;;25.38;100.00
2401;BME280;1211;43.200;27.914;2022-08-19T03:39:22;100630.06;;;25.18;100.00
2401;BME280;1211;43.200;27.914;2022-08-19T03:41:52;100633.06;;;25.30;100.00
2401;BME280;1211;43.200;27.914;2022-08-19T03:44:22;100639.44;;;25.34;100.00
2401;BME280;1211;43.200;27.914;2022-08-19T03:46:50;100638.47;;;25.21;100.00
2401;BME280;1211;43.200;27.914;2022-08-19T03:49:18;100638.31;;;25.28;100.00
2401;BME280;1211;43.200;27.914;2022-08-19T03:51:47;100638.69;;;24.57;100.00
2401;BME280;1211;43.200;27.914;2022-08-19T03:54:16;100649.56;;;25.09;100.00
2401;BME280;1211;43.200;27.914;2022-08-19T03:56:47;100654.94;;;25.23;100.00
2401;BME280;1211;43.200;27.914;2022-08-19T03:59:17;100660.78;;;25.12;100.00
2401;BME280;1211;43.200;27.914;2022-08-19T04:01:44;100655.75;;;24.16;100.00
2401;BME280;1211;43.200;27.914;2022-08-19T04:04:11;100659.78;;;25.45;100.00
2401;BME280;1211;43.200;27.914;2022-08-19T04:06:39;100647.94;;;25.97;100.00
2401;BME280;1211;43.200;27.914;2022-08-19T04:09:07;100651.75;;;25.87;100.00
2401;BME280;1211;43.200;27.914;2022-08-19T04:11:37;100655.56;;;25.57;100.00
2401;BME280;1211;43.200;27.914;2022-08-19T04:14:10;100661.59;;;25.79;100.00
2401;BME280;1211;43.200;27.914;2022-08-19T04:16:37;100658.16;;;26.47;100.00
2401;BME280;1211;43.200;27.914;2022-08-19T04:19:05;100671.53;;;26.79;100.00
2401;BME280;1211;43.200;27.914;2022-08-19T04:21:33;100670.59;;;27.01;100.00
2401;BME280;1211;43.200;27.914;2022-08-19T04:24:01;100673.06;;;28.06;100.00
2401;BME280;1211;43.200;27.914;2022-08-19T04:26:30;100671.91;;;28.32;100.00
2401;BME280;1211;43.200;27.914;2022-08-19T04:28:58;100678.53;;;28.80;100.00
2401;BME280;1211;43.200;27.914;2022-08-19T04:31:29;100692.19;;;29.32;100.00
2401;BME280;1211;43.200;27.914;2022-08-19T04:33:59;100684.06;;;29.90;100.00
2401;BME280;1211;43.200;27.914;2022-08-19T04:36:29;100692.19;;;29.79;100.00
2401;BME280;1211;43.200;27.914;2022-08-19T04:38:57;100694.34;;;30.09;100.00
2401;BME280;1211;43.200;27.914;2022-08-19T04:41:25;100691.09;;;29.17;100.00
2401;BME280;1211;43.200;27.914;2022-08-19T04:44:10;100685.53;;;28.08;100.00
2401;BME280;1211;43.200;27.914;2022-08-19T04:46:39;100686.06;;;28.32;100.00
2401;BME280;1211;43.200;27.914;2022-08-19T04:49:07;100685.53;;;28.62;100.00
2401;BME280;1211;43.200;27.914;2022-08-19T04:51:34;100694.00;;;29.51;100.00
2401;BME280;1211;43.200;27.914;2022-08-19T04:54:03;100692.69;;;28.80;100.00
2401;BME280;1211;43.200;27.914;2022-08-19T04:56:30;100683.59;;;29.10;100.00
2401;BME280;1211;43.200;27.914;2022-08-19T04:58:57;100689.19;;;29.01;100.00
2401;BME280;1211;43.200;27.914;2022-08-19T05:01:29;100690.72;;;29.27;100.00
2401;BME280;1211;43.200;27.914;2022-08-19T05:03:58;100684.84;;;29.09;100.00
2401;BME280;1211;43.200;27.914;2022-08-19T05:06:26;100694.16;;;29.69;100.00
2401;BME280;1211;43.200;27.914;2022-08-19T05:08:54;100683.97;;;29.59;100.00
2401;BME280;1211;43.200;27.914;2022-08-19T05:11:23;100683.44;;;30.08;100.00
2401;BME280;1211;43.200;27.914;2022-08-19T05:13:51;100692.75;;;30.08;100.00
2401;BME280;1211;43.200;27.914;2022-08-19T05:16:19;100686.16;;;28.16;100.00
2401;BME280;1211;43.200;27.914;2022-08-19T05:18:47;100689.03;;;29.77;100.00
2401;BME280;1211;43.200;27.914;2022-08-19T05:21:45;100691.84;;;30.42;100.00
2401;BME280;1211;43.200;27.914;2022-08-19T05:24:30;100703.47;;;32.55;100.00
2401;BME280;1211;43.200;27.914;2022-08-19T05:26:59;100692.25;;;30.53;100.00
2401;BME280;1211;43.200;27.914;2022-08-19T05:29:29;100696.88;;;32.04;100.00
2401;BME280;1211;43.200;27.914;2022-08-19T05:31:57;100691.06;;;33.09;91.09
2401;BME280;1211;43.200;27.914;2022-08-19T05:34:25;100697.25;;;31.78;95.60
2401;BME280;1211;43.200;27.914;2022-08-19T05:36:55;100690.53;;;31.54;97.35
2401;BME280;1211;43.200;27.914;2022-08-19T05:39:25;100684.63;;;33.47;86.77
2401;BME280;1211;43.200;27.914;2022-08-19T05:41:54;100678.56;;;33.93;83.19
2401;BME280;1211;43.200;27.914;2022-08-19T05:44:23;100692.97;;;35.01;78.11
2401;BME280;1211;43.200;27.914;2022-08-19T05:46:51;100694.56;;;34.14;78.17
2401;BME280;1211;43.200;27.914;2022-08-19T05:49:21;100684.63;;;34.83;77.27
2401;BME280;1211;43.200;27.914;2022-08-19T05:51:48;100689.44;;;35.47;73.44
2401;BME280;1211;43.200;27.914;2022-08-19T05:54:17;100687.63;;;35.90;71.42
2401;BME280;1211;43.200;27.914;2022-08-19T05:56:45;100676.13;;;34.74;72.77
2401;BME280;1211;43.200;27.914;2022-08-19T05:59:14;100680.75;;;35.62;70.13
2401;BME280;1211;43.200;27.914;2022-08-19T06:01:45;100683.28;;;36.20;68.43
2401;BME280;1211;43.200;27.914;2022-08-19T06:04:13;100687.16;;;34.96;70.85
2401;BME280;1211;43.200;27.914;2022-08-19T06:06:40;100677.78;;;34.95;70.36
2401;BME280;1211;43.200;27.914;2022-08-19T06:09:07;100678.00;;;34.77;72.54
2401;BME280;1211;43.200;27.914;2022-08-19T06:11:38;100680.78;;;35.82;69.19
2401;BME280;1211;43.200;27.914;2022-08-19T06:14:09;100683.53;;;36.17;66.80
2401;BME280;1211;43.200;27.914;2022-08-19T06:16:37;100677.38;;;35.83;67.95
2401;BME280;1211;43.200;27.914;2022-08-19T06:19:06;100672.16;;;36.28;66.68
2401;BME280;1211;43.200;27.914;2022-08-19T06:21:34;100671.53;;;35.32;68.15
2401;BME280;1211;43.200;27.914;2022-08-19T06:24:03;100676.22;;;36.16;67.15
2401;BME280;1211;43.200;27.914;2022-08-19T06:26:31;100670.75;;;35.51;68.47
2401;BME280;1211;43.200;27.914;2022-08-19T06:28:59;100665.22;;;35.28;70.05
2401;BME280;1211;43.200;27.914;2022-08-19T06:31:28;100662.81;;;36.33;66.71
2401;BME280;1211;43.200;27.914;2022-08-19T06:33:56;100669.00;;;36.89;64.92
2401;BME280;1211;43.200;27.914;2022-08-19T06:36:25;100674.72;;;36.89;63.96
2401;BME280;1211;43.200;27.914;2022-08-19T06:38:57;100672.47;;;36.10;65.16
2401;BME280;1211;43.200;27.914;2022-08-19T06:41:24;100673.50;;;36.32;65.64
2401;BME280;1211;43.200;27.914;2022-08-19T06:43:51;100669.25;;;36.85;63.52
2401;BME280;1211;43.200;27.914;2022-08-19T06:46:20;100680.25;;;36.98;63.57
2401;BME280;1211;43.200;27.914;2022-08-19T06:48:48;100670.28;;;37.84;61.85
2401;BME280;1211;43.200;27.914;2022-08-19T06:51:16;100684.03;;;37.58;60.81
2401;BME280;1211;43.200;27.914;2022-08-19T06:53:44;100677.88;;;37.33;62.18
2401;BME280;1211;43.200;27.914;2022-08-19T06:56:12;100682.31;;;37.88;60.60
2401;BME280;1211;43.200;27.914;2022-08-19T06:58:39;100679.63;;;37.14;61.87
2401;BME280;1211;43.200;27.914;2022-08-19T07:01:08;100668.78;;;37.40;61.04
2401;BME280;1211;43.200;27.914;2022-08-19T07:03:37;100678.16;;;36.30;64.02
2401;BME280;1211;43.200;27.914;2022-08-19T07:06:04;100671.81;;;37.20;61.74
2401;BME280;1211;43.200;27.914;2022-08-19T07:08:33;100675.22;;;37.78;60.06
2401;BME280;1211;43.200;27.914;2022-08-19T07:11:02;100675.47;;;37.74;59.98
2401;BME280;1211;43.200;27.914;2022-08-19T07:13:32;100670.09;;;38.15;58.89
2401;BME280;1211;43.200;27.914;2022-08-19T07:16:03;100657.19;;;37.77;59.29
2401;BME280;1211;43.200;27.914;2022-08-19T07:18:30;100669.28;;;38.04;59.51
2401;BME280;1211;43.200;27.914;2022-08-19T07:21:04;100656.50;;;38.44;57.29
2401;BME280;1211;43.200;27.914;2022-08-19T07:23:31;100657.81;;;38.48;57.88
2401;BME280;1211;43.200;27.914;2022-08-19T07:26:04;100662.69;;;37.92;58.26
2401;BME280;1211;43.200;27.914;2022-08-19T07:28:32;100664.34;;;36.97;59.94
2401;BME280;1211;43.200;27.914;2022-08-19T07:30:58;100650.38;;;37.80;59.63
2401;BME280;1211;43.200;27.914;2022-08-19T07:33:27;100663.81;;;38.11;58.48
2401;BME280;1211;43.200;27.914;2022-08-19T07:35:57;100662.16;;;37.77;58.32
2401;BME280;1211;43.200;27.914;2022-08-19T07:38:25;100666.69;;;38.06;58.46
2401;BME280;1211;43.200;27.914;2022-08-19T07:40:52;100658.84;;;38.73;57.05
2401;BME280;1211;43.200;27.914;2022-08-19T07:43:19;100658.03;;;39.00;56.35
2401;BME280;1211;43.200;27.914;2022-08-19T07:45:51;100664.13;;;39.60;55.02
2401;BME280;1211;43.200;27.914;2022-08-19T07:48:18;100666.81;;;39.99;53.88
2401;BME280;1211;43.200;27.914;2022-08-19T07:50:45;100666.44;;;39.78;53.99
2401;BME280;1211;43.200;27.914;2022-08-19T07:53:13;100662.75;;;40.19;53.30
2401;BME280;1211;43.200;27.914;2022-08-19T07:55:42;100664.03;;;39.82;54.26
2401;BME280;1211;43.200;27.914;2022-08-19T07:58:09;100652.69;;;39.43;53.04
2401;BME280;1211;43.200;27.914;2022-08-19T08:00:36;100658.31;;;39.02;54.16
2401;BME280;1211;43.200;27.914;2022-08-19T08:03:04;100653.78;;;37.90;55.51
2401;BME280;1211;43.200;27.914;2022-08-19T08:05:30;100656.94;;;37.92;55.43
2401;BME280;1211;43.200;27.914;2022-08-19T08:08:15;100656.50;;;38.44;54.55
2401;BME280;1211;43.200;27.914;2022-08-19T08:11:01;100646.28;;;38.87;53.94
2401;BME280;1211;43.200;27.914;2022-08-19T08:13:28;100644.69;;;39.66;52.27
2401;BME280;1211;43.200;27.914;2022-08-19T08:15:55;100652.91;;;39.45;51.60
2401;BME280;1211;43.200;27.914;2022-08-19T08:18:22;100646.72;;;39.82;50.75
2401;BME280;1211;43.200;27.914;2022-08-19T08:20:49;100642.66;;;38.64;52.82
2401;BME280;1211;43.200;27.914;2022-08-19T08:23:16;100645.16;;;37.84;53.17
2401;BME280;1211;43.200;27.914;2022-08-19T08:25:50;100644.44;;;38.95;53.05
2401;BME280;1211;43.200;27.914;2022-08-19T08:28:19;100647.16;;;40.33;50.55
2401;BME280;1211;43.200;27.914;2022-08-19T08:30:47;100641.66;;;39.42;51.29
2401;BME280;1211;43.200;27.914;2022-08-19T08:33:14;100640.81;;;38.50;52.31
2401;BME280;1211;43.200;27.914;2022-08-19T08:35:44;100641.53;;;38.90;51.70
2401;BME280;1211;43.200;27.914;2022-08-19T08:38:13;100634.38;;;37.63;52.41
2401;BME280;1211;43.200;27.914;2022-08-19T08:40:44;100634.47;;;38.02;51.70
2401;BME280;1211;43.200;27.914;2022-08-19T08:43:23;100627.41;;;37.21;53.87
2401;BME280;1211;43.200;27.914;2022-08-19T08:45:56;100627.69;;;37.29;54.16
2401;BME280;1211;43.200;27.914;2022-08-19T08:48:33;100629.56;;;38.41;52.57
2401;BME280;1211;43.200;27.914;2022-08-19T08:51:03;100633.13;;;40.13;49.97
2401;BME280;1211;43.200;27.914;2022-08-19T08:53:32;100617.94;;;41.21;49.46
2401;BME280;1211;43.200;27.914;2022-08-19T08:56:03;100629.59;;;39.49;49.96
2401;BME280;1211;43.200;27.914;2022-08-19T08:58:42;100631.09;;;38.25;52.47
2401;BME280;1211;43.200;27.914;2022-08-19T09:01:12;100625.88;;;40.01;50.08
2401;BME280;1211;43.200;27.914;2022-08-19T09:03:43;100617.59;;;39.23;51.11
2401;BME280;1211;43.200;27.914;2022-08-19T09:06:24;100625.88;;;40.36;49.91
2401;BME280;1211;43.200;27.914;2022-08-19T09:09:02;100633.72;;;38.46;50.67
2401;BME280;1211;43.200;27.914;2022-08-19T09:11:44;100628.41;;;39.05;50.43
2401;BME280;1211;43.200;27.914;2022-08-19T09:14:28;100632.31;;;40.18;48.01
2401;BME280;1211;43.200;27.914;2022-08-19T09:16:58;100635.47;;;39.16;48.56
2401;BME280;1211;43.200;27.914;2022-08-19T09:19:29;100636.56;;;39.65;48.37
2401;BME280;1211;43.200;27.914;2022-08-19T09:21:57;100632.44;;;38.41;50.46
2401;BME280;1211;43.200;27.914;2022-08-19T09:24:34;100633.72;;;38.01;51.81
2401;BME280;1211;43.200;27.914;2022-08-19T09:27:01;100640.00;;;38.66;50.30
2401;BME280;1211;43.200;27.914;2022-08-19T09:29:53;100632.66;;;37.28;51.44
2401;BME280;1211;43.200;27.914;2022-08-19T09:32:34;100639.72;;;36.85;54.03
2401;BME280;1211;43.200;27.914;2022-08-19T09:35:15;100636.19;;;39.33;50.03
2401;BME280;1211;43.200;27.914;2022-08-19T09:37:43;100634.78;;;39.56;49.85
2401;BME280;1211;43.200;27.914;2022-08-19T09:40:11;100647.84;;;40.45;47.85
2401;BME280;1211;43.200;27.914;2022-08-19T09:42:44;100639.22;;;40.04;48.53
2401;BME280;1211;43.200;27.914;2022-08-19T09:48:37;100650.28;;;42.50;44.80
2401;BME280;1211;43.200;27.914;2022-08-19T09:51:09;100651.13;;;40.30;47.03
2401;BME280;1211;43.200;27.914;2022-08-19T09:53:51;100644.00;;;40.37;46.98
2401;BME280;1211;43.200;27.914;2022-08-19T09:56:23;100641.00;;;42.52;44.80
2401;BME280;1211;43.200;27.914;2022-08-19T09:59:03;100639.53;;;42.13;43.80
2401;BME280;1211;43.200;27.914;2022-08-19T10:01:32;100635.16;;;41.07;44.88
2401;BME280;1211;43.200;27.914;2022-08-19T10:04:04;100641.00;;;41.02;45.86
2401;BME280;1211;43.200;27.914;2022-08-19T10:06:36;100634.69;;;39.15;48.46
2401;BME280;1211;43.200;27.914;2022-08-19T10:09:05;100634.41;;;37.79;50.74
2401;BME280;1211;43.200;27.914;2022-08-19T10:11:47;100641.97;;;39.90;47.18
2401;BME280;1211;43.200;27.914;2022-08-19T10:14:15;100645.78;;;41.24;45.40
2401;BME280;1211;43.200;27.914;2022-08-19T10:16:42;100640.06;;;42.30;44.29
2401;BME280;1211;43.200;27.914;2022-08-19T10:19:11;100627.59;;;41.85;44.70
2401;BME280;1211;43.200;27.914;2022-08-19T10:21:38;100638.16;;;38.24;49.24
2401;BME280;1211;43.200;27.914;2022-08-19T10:24:05;100637.72;;;39.97;47.19
2401;BME280;1211;43.200;27.914;2022-08-19T10:26:34;100640.00;;;41.42;44.41
2401;BME280;1211;43.200;27.914;2022-08-19T10:29:03;100632.53;;;41.90;44.01
2401;BME280;1211;43.200;27.914;2022-08-19T10:31:32;100643.03;;;42.57;43.10
2401;BME280;1211;43.200;27.914;2022-08-19T10:34:00;100650.50;;;40.97;44.43
2401;BME280;1211;43.200;27.914;2022-08-19T10:36:30;100645.38;;;40.84;43.66
2401;BME280;1211;43.200;27.914;2022-08-19T10:38:59;100645.69;;;40.81;43.66
2401;BME280;1211;43.200;27.914;2022-08-19T10:41:28;100632.28;;;39.25;46.85
2401;BME280;1211;43.200;27.914;2022-08-19T10:43:56;100640.78;;;38.45;47.75
2401;BME280;1211;43.200;27.914;2022-08-19T10:46:26;100656.28;;;39.55;46.52
2401;BME280;1211;43.200;27.914;2022-08-19T10:48:53;100649.34;;;39.17;48.60
2401;BME280;1211;43.200;27.914;2022-08-19T10:51:21;100639.16;;;37.88;59.22
2401;BME280;1211;43.200;27.914;2022-08-19T10:54:06;100639.25;;;37.40;62.76
2401;BME280;1211;43.200;27.914;2022-08-19T10:56:34;100639.69;;;36.48;64.35
2401;BME280;1211;43.200;27.914;2022-08-19T10:59:21;100639.28;;;35.57;68.38
2401;BME280;1211;43.200;27.914;2022-08-19T11:01:49;100642.28;;;35.48;68.40
2401;BME280;1211;43.200;27.914;2022-08-19T11:04:18;100642.66;;;35.35;70.68
2401;BME280;1211;43.200;27.914;2022-08-19T11:06:46;100641.59;;;35.33;74.34
2401;BME280;1211;43.200;27.914;2022-08-19T11:09:17;100645.31;;;35.59;75.64
2401;BME280;1211;43.200;27.914;2022-08-19T11:11:45;100644.53;;;34.83;82.98
2401;BME280;1211;43.200;27.914;2022-08-19T11:14:17;100648.44;;;34.21;94.41
2401;BME280;1211;43.200;27.914;2022-08-19T11:16:46;100647.31;;;33.51;99.32
2401;BME280;1211;43.200;27.914;2022-08-19T11:19:14;100644.16;;;32.68;100.00
2401;BME280;1211;43.200;27.914;2022-08-19T11:21:44;100638.31;;;32.96;100.00
2401;BME280;1211;43.200;27.914;2022-08-19T11:24:15;100641.69;;;33.18;100.00
2401;BME280;1211;43.200;27.914;2022-08-19T11:26:43;100650.44;;;32.40;100.00
2401;BME280;1211;43.200;27.914;2022-08-19T11:29:12;100634.50;;;31.51;100.00
2401;BME280;1211;43.200;27.914;2022-08-19T11:31:41;100640.38;;;31.38;100.00
2401;BME280;1211;43.200;27.914;2022-08-19T11:34:11;100636.75;;;31.56;100.00
2401;BME280;1211;43.200;27.914;2022-08-19T11:36:41;100617.44;;;31.42;100.00
2401;BME280;1211;43.200;27.914;2022-08-19T11:39:10;100633.56;;;31.45;100.00
2401;BME280;1211;43.200;27.914;2022-08-19T11:41:39;100634.81;;;31.07;100.00
2401;BME280;1211;43.200;27.914;2022-08-19T11:44:06;100639.16;;;30.81;100.00
2401;BME280;1211;43.200;27.914;2022-08-19T11:46:35;100638.19;;;30.93;100.00
2401;BME280;1211;43.200;27.914;2022-08-19T11:49:03;100636.03;;;30.97;100.00
2401;BME280;1211;43.200;27.914;2022-08-19T11:51:31;100636.47;;;31.72;100.00
2401;BME280;1211;43.200;27.914;2022-08-19T11:53:59;100629.06;;;32.35;100.00
2401;BME280;1211;43.200;27.914;2022-08-19T11:56:27;100631.25;;;32.82;100.00
2401;BME280;1211;43.200;27.914;2022-08-19T11:58:57;100629.47;;;32.94;100.00
2401;BME280;1211;43.200;27.914;2022-08-19T12:01:25;100621.72;;;33.09;100.00
2401;BME280;1211;43.200;27.914;2022-08-19T12:03:54;100633.50;;;33.02;100.00
2401;BME280;1211;43.200;27.914;2022-08-19T12:06:23;100634.06;;;32.49;100.00
2401;BME280;1211;43.200;27.914;2022-08-19T12:08:54;100638.06;;;33.56;100.00
2401;BME280;1211;43.200;27.914;2022-08-19T12:11:21;100634.53;;;32.57;100.00
2401;BME280;1211;43.200;27.914;2022-08-19T12:13:48;100624.72;;;31.79;100.00
2401;BME280;1211;43.200;27.914;2022-08-19T12:16:20;100628.69;;;31.82;100.00
2401;BME280;1211;43.200;27.914;2022-08-19T12:18:48;100619.16;;;31.58;100.00
2401;BME280;1211;43.200;27.914;2022-08-19T12:21:18;100629.13;;;31.35;100.00
2401;BME280;1211;43.200;27.914;2022-08-19T12:23:47;100637.69;;;31.35;100.00
2401;BME280;1211;43.200;27.914;2022-08-19T12:26:14;100630.41;;;31.79;100.00
2401;BME280;1211;43.200;27.914;2022-08-19T12:28:41;100613.31;;;31.52;100.00
2401;BME280;1211;43.200;27.914;2022-08-19T12:31:09;100620.47;;;31.66;100.00
2401;BME280;1211;43.200;27.914;2022-08-19T12:33:39;100628.34;;;31.34;100.00
2401;BME280;1211;43.200;27.914;2022-08-19T12:36:08;100633.09;;;31.46;100.00
2401;BME280;1211;43.200;27.914;2022-08-19T12:38:37;100631.34;;;31.31;100.00
2401;BME280;1211;43.200;27.914;2022-08-19T12:41:05;100629.16;;;31.62;100.00
2401;BME280;1211;43.200;27.914;2022-08-19T12:43:32;100627.72;;;31.94;100.00
2401;BME280;1211;43.200;27.914;2022-08-19T12:46:00;100626.59;;;31.91;100.00
2401;BME280;1211;43.200;27.914;2022-08-19T12:48:27;100624.06;;;31.94;100.00
2401;BME280;1211;43.200;27.914;2022-08-19T12:50:56;100631.72;;;30.93;100.00
2401;BME280;1211;43.200;27.914;2022-08-19T12:53:23;100619.41;;;30.96;100.00
2401;BME280;1211;43.200;27.914;2022-08-19T12:55:55;100625.19;;;31.41;100.00
2401;BME280;1211;43.200;27.914;2022-08-19T12:58:22;100637.53;;;31.47;100.00
2401;BME280;1211;43.200;27.914;2022-08-19T13:00:50;100631.91;;;30.98;100.00
2401;BME280;1211;43.200;27.914;2022-08-19T13:03:16;100644.31;;;31.23;100.00
2401;BME280;1211;43.200;27.914;2022-08-19T13:05:43;100634.31;;;30.60;100.00
2401;BME280;1211;43.200;27.914;2022-08-19T13:08:11;100619.50;;;31.32;100.00
2401;BME280;1211;43.200;27.914;2022-08-19T13:10:38;100629.63;;;30.44;100.00